Fairplay, Maryland
Current Conditions -  °F | °C
As of 4:53 PM on Tuesday 21 Oct 2014 (Local Time) from KHGR Reporting Station
Light Rain Light Rain  
Wind Chill: 12°   Ceiling: 6000
Heat Index: 12°   Visibility: 9mi
Dew Point: 10°   Wind: 12mph
Humidity: 89%   Direction: 300°WNW
Pressure: 29.85"   Gusts: NA
Location:  39.54°N, 77.75°W
Report Text: KHGR 212053Z 30010KT 9SM -RA BKN060 OVC080 12/10 A2985 RMK AO2 SLP119 P0005 60009 T01170100 53011
Loading
Personal Weather Stations






























Interactive Weather Map
Tropical Storm Tracking
New forecast layout! Learn more

10-Day Weather Forecast

Advertisements
Track Severe Weather on mobile